Main page
METAR-TAF:

Airports :

Viru-Viru, Bolivia

Viru Viru International Airport

latitude: 17-38S, longitude: 063-08W, elevation: 373 m

Current weather observation

The report was made 20 minutes ago, at 23:00 UTC
Wind 3 kt from the North/Northwest
Temperature 20°C
Humidity 64%
Pressure 1017 hPa
Visibility: 8000 m
Few clouds at a height of 2300 ft
Scattered clouds at a height of 8000 ft

METAR: SLVR 242300Z 33003KT 8000 FEW023 SCT080 20/13 Q1017

Time: 19:20 (23:20 UTC)

Forecast

The report was made 6 hours and 50 minutes ago, at 16:30 UTC
Forecast valid from 24 at 18 UTC to 25 at 18 UTC
Wind 5 kt from the South/Southeast
Visibility 10 km or more
Becoming
from 25 at 13 UTC to 25 at 15 UTC
Wind 6 kt from the North/Northwest
Few clouds at a height of 2700 ft

TAF: SLVR 241630Z 2418/2518 16005KT 9999 NSC TX24/2420Z TN15/2511Z BECMG 2513/2515 33006KT FEW027

METAR-TAF

Weather observations and forecasts of more than 4000 airports (METAR and TAF reports).

The available stations are represented by yellow and red dots on the map.

Hover mouse over dot to see the name of the station.

Then click to see weather observations and forecasts.

To change the map : click on the green buttons with a black cross to zoom in, on the green button with a dash to zoom out, or on the green arrows for adjacent maps.


METAR-TAF: